PWG weather

McGregor Executive Airport
Waco, Texas, United States

Public forecast

Using degrees Fahrenheit for public forecast. Weather courtesy of forecast.io.

METAR (pilot weather report)

Retrieved 2019/09/17 08:56 UTC (20 minutes ago):

KPWG 170856Z AUTO 00000KT 10SM CLR 23/19 A2997 RMK AO2 SLP138 T02330194 58001 $

TAF (pilot weather forecast)

Closest forecast is Waco Regional Airport, 8.8 nm (16.2 km) NNE. Retrieved 2019/09/17 06:22 UTC (3 hours ago):

TAF KACT 170520Z 1706/1806 09008KT P6SM FEW080 TEMPO 1713/1715 BKN025 FM171700 12009KT P6SM BKN050